AFR357K CYYZ-LFPG
Flight info
| Callsign | AFR357K |
|---|---|
| Flight time | N/A |
| Altitude | 35000 |
| Route | VERDO7 IPTOS DCT KEMVI Q852 KANUR Q806 SAVEX DCT MIILS N285B NICSO/M084F360 DCT 48N050W 50N040W 52N030W 54N020W DCT DOGAL DCT BEXET/N0481F370 DCT MORAG DCT NUCHU L18 MID/N0498F290 Y803 SFD UM605 BIBAX |
| Aircraft | B77W/H-SDE1E2E3FGHIJ2J3J4J5M1RWXY/LB1D1 |
Departure
| Time | N/A |
|---|---|
| Airport | Toronto Pearson International Airport (CYYZ) |
Arrival
| Time | 2026-05-04 21:43 |
|---|---|
| Airport | Charles de Gaulle International Airport (LFPG) |
| Time | Latitude | Longitude | Altitude | Speed | Heading |
|---|---|---|---|---|---|
| 2026-05-04 21:06 | 51.27419 | -1.08599 | 35029 ft | 467 kts | 128° |
| 2026-05-04 21:06 | 51.25446 | -1.04477 | 35030 ft | 466 kts | 128° |
| 2026-05-04 21:07 | 51.21533 | -0.96279 | 35028 ft | 466 kts | 128° |
| 2026-05-04 21:07 | 51.17626 | -0.88083 | 35020 ft | 466 kts | 128° |
| 2026-05-04 21:08 | 51.13699 | -0.79853 | 35028 ft | 466 kts | 128° |
| 2026-05-04 21:08 | 51.09801 | -0.71698 | 35023 ft | 466 kts | 128° |
| 2026-05-04 21:09 | 51.05878 | -0.63502 | 35015 ft | 466 kts | 127° |
| 2026-05-04 21:09 | 51.02396 | -0.54826 | 35014 ft | 467 kts | 122° |
| 2026-05-04 21:10 | 50.99014 | -0.46103 | 35013 ft | 466 kts | 122° |
| 2026-05-04 21:10 | 50.95608 | -0.37358 | 35011 ft | 465 kts | 123° |
| 2026-05-04 21:11 | 50.92212 | -0.28677 | 35005 ft | 465 kts | 123° |
| 2026-05-04 21:11 | 50.88807 | -0.20003 | 35012 ft | 465 kts | 123° |
| 2026-05-04 21:12 | 50.85397 | -0.11347 | 35003 ft | 467 kts | 123° |
| 2026-05-04 21:12 | 50.81972 | -0.02683 | 35011 ft | 467 kts | 123° |
| 2026-05-04 21:13 | 50.78523 | 0.06011 | 34997 ft | 468 kts | 124° |
| 2026-05-04 21:13 | 50.74497 | 0.13985 | 34999 ft | 464 kts | 139° |
| 2026-05-04 21:14 | 50.69566 | 0.20488 | 35000 ft | 462 kts | 142° |
| 2026-05-04 21:14 | 50.64614 | 0.26839 | 34990 ft | 461 kts | 142° |
| 2026-05-04 21:15 | 50.59618 | 0.33218 | 34993 ft | 461 kts | 142° |
| 2026-05-04 21:15 | 50.54664 | 0.39522 | 34994 ft | 462 kts | 142° |
| 2026-05-04 21:16 | 50.52172 | 0.42686 | 34755 ft | 455 kts | 142° |
| 2026-05-04 21:16 | 50.49744 | 0.45763 | 34035 ft | 459 kts | 143° |
| 2026-05-04 21:16 | 50.47223 | 0.48952 | 33050 ft | 466 kts | 142° |
| 2026-05-04 21:16 | 50.44704 | 0.52134 | 32126 ft | 470 kts | 142° |
| 2026-05-04 21:17 | 50.42199 | 0.55294 | 31267 ft | 472 kts | 142° |
| 2026-05-04 21:17 | 50.39632 | 0.58530 | 30478 ft | 470 kts | 142° |
| 2026-05-04 21:17 | 50.37111 | 0.61703 | 29999 ft | 461 kts | 142° |
| 2026-05-04 21:17 | 50.34659 | 0.64785 | 29505 ft | 454 kts | 142° |
| 2026-05-04 21:18 | 50.32197 | 0.67875 | 28977 ft | 447 kts | 143° |
| 2026-05-04 21:18 | 50.29805 | 0.70872 | 28451 ft | 440 kts | 143° |
| 2026-05-04 21:18 | 50.27450 | 0.73821 | 27924 ft | 434 kts | 142° |
| 2026-05-04 21:18 | 50.25109 | 0.76747 | 27402 ft | 428 kts | 142° |
| 2026-05-04 21:19 | 50.22813 | 0.79614 | 26885 ft | 430 kts | 142° |
| 2026-05-04 21:19 | 50.20440 | 0.82570 | 26337 ft | 440 kts | 142° |
| 2026-05-04 21:19 | 50.18067 | 0.85525 | 25788 ft | 437 kts | 142° |
| 2026-05-04 21:19 | 50.15707 | 0.88459 | 25231 ft | 431 kts | 142° |
| 2026-05-04 21:20 | 50.13390 | 0.91336 | 24696 ft | 425 kts | 142° |
| 2026-05-04 21:20 | 50.11114 | 0.94159 | 24197 ft | 419 kts | 141° |
| 2026-05-04 21:20 | 50.08864 | 0.96947 | 24088 ft | 404 kts | 141° |
| 2026-05-04 21:20 | 50.06717 | 0.99583 | 23995 ft | 389 kts | 144° |
| 2026-05-04 21:21 | 50.04449 | 1.01746 | 23808 ft | 378 kts | 152° |
| 2026-05-04 21:21 | 50.02076 | 1.03572 | 23321 ft | 384 kts | 153° |
| 2026-05-04 21:21 | 49.99704 | 1.05363 | 22809 ft | 383 kts | 153° |
| 2026-05-04 21:21 | 49.97304 | 1.07169 | 22334 ft | 379 kts | 153° |
| 2026-05-04 21:22 | 49.94972 | 1.08924 | 21887 ft | 375 kts | 154° |
| 2026-05-04 21:22 | 49.92643 | 1.10674 | 21447 ft | 371 kts | 154° |
| 2026-05-04 21:22 | 49.90331 | 1.12410 | 21017 ft | 367 kts | 154° |
| 2026-05-04 21:22 | 49.88069 | 1.14106 | 20601 ft | 363 kts | 154° |
| 2026-05-04 21:23 | 49.85822 | 1.15789 | 20191 ft | 358 kts | 154° |
| 2026-05-04 21:23 | 49.83571 | 1.17474 | 19779 ft | 354 kts | 154° |
| 2026-05-04 21:23 | 49.81384 | 1.19109 | 19382 ft | 350 kts | 154° |
| 2026-05-04 21:23 | 49.79205 | 1.20736 | 18982 ft | 346 kts | 154° |
| 2026-05-04 21:24 | 49.77060 | 1.22336 | 18582 ft | 342 kts | 154° |
| 2026-05-04 21:24 | 49.74950 | 1.23910 | 18200 ft | 339 kts | 154° |
| 2026-05-04 21:24 | 49.72817 | 1.25497 | 17811 ft | 335 kts | 154° |
| 2026-05-04 21:24 | 49.70761 | 1.27027 | 17434 ft | 332 kts | 154° |
| 2026-05-04 21:25 | 49.68692 | 1.28564 | 17059 ft | 329 kts | 154° |
| 2026-05-04 21:25 | 49.66621 | 1.30102 | 16690 ft | 326 kts | 153° |
| 2026-05-04 21:25 | 49.64618 | 1.31587 | 16326 ft | 323 kts | 153° |
| 2026-05-04 21:25 | 49.62608 | 1.33076 | 15955 ft | 320 kts | 153° |
| 2026-05-04 21:26 | 49.60594 | 1.34568 | 15580 ft | 318 kts | 153° |
| 2026-05-04 21:26 | 49.58627 | 1.36023 | 15216 ft | 315 kts | 153° |
| 2026-05-04 21:26 | 49.56668 | 1.37471 | 14854 ft | 313 kts | 153° |
| 2026-05-04 21:26 | 49.54704 | 1.38921 | 14492 ft | 310 kts | 153° |
| 2026-05-04 21:27 | 49.52790 | 1.40333 | 14139 ft | 308 kts | 152° |
| 2026-05-04 21:27 | 49.50849 | 1.41763 | 13778 ft | 306 kts | 152° |
| 2026-05-04 21:27 | 49.48934 | 1.43173 | 13423 ft | 304 kts | 152° |
| 2026-05-04 21:27 | 49.47049 | 1.44560 | 13078 ft | 302 kts | 152° |
| 2026-05-04 21:28 | 49.45174 | 1.45939 | 12735 ft | 300 kts | 152° |
| 2026-05-04 21:28 | 49.43308 | 1.47309 | 12392 ft | 298 kts | 152° |
| 2026-05-04 21:28 | 49.41431 | 1.48687 | 12048 ft | 295 kts | 152° |
| 2026-05-04 21:28 | 49.39597 | 1.50031 | 11705 ft | 294 kts | 152° |
| 2026-05-04 21:29 | 49.37765 | 1.51375 | 11359 ft | 292 kts | 151° |
| 2026-05-04 21:29 | 49.36060 | 1.53000 | 11025 ft | 288 kts | 142° |
| 2026-05-04 21:29 | 49.34444 | 1.54792 | 10686 ft | 286 kts | 142° |
| 2026-05-04 21:29 | 49.32858 | 1.56562 | 10353 ft | 283 kts | 141° |
| 2026-05-04 21:30 | 49.31280 | 1.58317 | 10066 ft | 280 kts | 141° |
| 2026-05-04 21:30 | 49.29724 | 1.60049 | 9970 ft | 271 kts | 141° |
| 2026-05-04 21:30 | 49.28209 | 1.61730 | 9942 ft | 271 kts | 141° |
| 2026-05-04 21:30 | 49.26691 | 1.63417 | 9956 ft | 271 kts | 141° |
| 2026-05-04 21:31 | 49.23667 | 1.66775 | 9711 ft | 267 kts | 142° |
| 2026-05-04 21:31 | 49.22153 | 1.68448 | 9317 ft | 269 kts | 142° |
| 2026-05-04 21:31 | 49.20649 | 1.70120 | 9017 ft | 267 kts | 141° |
| 2026-05-04 21:32 | 49.19158 | 1.71772 | 8677 ft | 267 kts | 142° |
| 2026-05-04 21:32 | 49.17654 | 1.73430 | 8404 ft | 265 kts | 142° |
| 2026-05-04 21:32 | 49.16160 | 1.75072 | 8100 ft | 264 kts | 142° |
| 2026-05-04 21:32 | 49.14721 | 1.76650 | 8042 ft | 251 kts | 142° |
| 2026-05-04 21:33 | 49.13341 | 1.78157 | 7967 ft | 235 kts | 142° |
| 2026-05-04 21:33 | 49.12048 | 1.79560 | 7983 ft | 223 kts | 142° |
| 2026-05-04 21:33 | 49.10797 | 1.80920 | 7837 ft | 216 kts | 142° |
| 2026-05-04 21:33 | 49.09615 | 1.82270 | 7654 ft | 209 kts | 133° |
| 2026-05-04 21:34 | 49.08794 | 1.84024 | 7475 ft | 200 kts | 118° |
| 2026-05-04 21:34 | 49.08135 | 1.85854 | 7317 ft | 194 kts | 117° |
| 2026-05-04 21:34 | 49.07504 | 1.87619 | 7186 ft | 189 kts | 117° |
| 2026-05-04 21:34 | 49.06867 | 1.89399 | 7042 ft | 190 kts | 117° |
| 2026-05-04 21:35 | 49.06222 | 1.91197 | 6898 ft | 202 kts | 117° |
| 2026-05-04 21:35 | 49.05551 | 1.93075 | 6724 ft | 198 kts | 117° |
| 2026-05-04 21:35 | 49.04903 | 1.94882 | 6571 ft | 193 kts | 117° |
| 2026-05-04 21:35 | 49.04267 | 1.96644 | 6412 ft | 188 kts | 117° |
| 2026-05-04 21:36 | 49.03641 | 1.98372 | 6264 ft | 187 kts | 117° |
| 2026-05-04 21:36 | 49.03006 | 2.00125 | 6119 ft | 187 kts | 117° |
| 2026-05-04 21:36 | 49.02379 | 2.01844 | 5974 ft | 186 kts | 117° |
| 2026-05-04 21:36 | 49.01751 | 2.03566 | 5830 ft | 188 kts | 117° |
| 2026-05-04 21:37 | 49.01120 | 2.05317 | 5683 ft | 187 kts | 115° |
| 2026-05-04 21:37 | 49.00551 | 2.07108 | 5562 ft | 203 kts | 109° |
| 2026-05-04 21:37 | 49.00246 | 2.09292 | 5360 ft | 216 kts | 94° |
| 2026-05-04 21:37 | 49.00224 | 2.11564 | 5184 ft | 217 kts | 88° |
| 2026-05-04 21:38 | 49.00298 | 2.13858 | 5066 ft | 217 kts | 85° |
| 2026-05-04 21:38 | 49.00410 | 2.16124 | 4958 ft | 217 kts | 84° |
| 2026-05-04 21:38 | 49.00545 | 2.18436 | 4730 ft | 219 kts | 84° |
| 2026-05-04 21:38 | 49.00687 | 2.20725 | 4452 ft | 219 kts | 84° |
| 2026-05-04 21:39 | 49.00831 | 2.23050 | 4137 ft | 219 kts | 84° |
| 2026-05-04 21:39 | 49.00963 | 2.25312 | 3867 ft | 212 kts | 83° |
| 2026-05-04 21:39 | 49.01088 | 2.27487 | 3609 ft | 199 kts | 84° |
| 2026-05-04 21:39 | 49.01204 | 2.29498 | 3370 ft | 190 kts | 84° |
| 2026-05-04 21:40 | 49.01317 | 2.31465 | 3125 ft | 183 kts | 84° |
| 2026-05-04 21:40 | 49.01424 | 2.33369 | 2904 ft | 183 kts | 83° |
| 2026-05-04 21:40 | 49.01531 | 2.35284 | 2664 ft | 181 kts | 83° |
| 2026-05-04 21:40 | 49.01638 | 2.37204 | 2423 ft | 183 kts | 83° |
| 2026-05-04 21:41 | 49.01741 | 2.39094 | 2178 ft | 176 kts | 83° |
| 2026-05-04 21:41 | 49.01841 | 2.40892 | 1936 ft | 164 kts | 83° |
| 2026-05-04 21:41 | 49.01931 | 2.42522 | 1720 ft | 149 kts | 82° |
| 2026-05-04 21:41 | 49.02018 | 2.44087 | 1521 ft | 144 kts | 83° |
| 2026-05-04 21:42 | 49.02097 | 2.45578 | 1322 ft | 142 kts | 83° |
| 2026-05-04 21:42 | 49.02180 | 2.47087 | 1136 ft | 144 kts | 86° |
| 2026-05-04 21:42 | 49.02238 | 2.48595 | 1053 ft | 141 kts | 88° |
| 2026-05-04 21:42 | 49.02298 | 2.50124 | 907 ft | 142 kts | 85° |
| 2026-05-04 21:43 | 49.02374 | 2.51565 | 639 ft | 133 kts | 84° |
| 2026-05-04 21:43 | 49.02467 | 2.52886 | 430 ft | 118 kts | 81° |
| 2026-05-04 21:43 | 49.02543 | 2.53985 | 386 ft | 87 kts | 83° |
| 2026-05-04 21:43 | 49.02591 | 2.54631 | 385 ft | 34 kts | 82° |
| 2026-05-04 21:44 | 49.02598 | 2.54733 | 384 ft | 6 kts | 87° |
| 2026-05-04 21:44 | 49.02599 | 2.54746 | 384 ft | 7 kts | 85° |
| 2026-05-04 21:44 | 49.02602 | 2.54821 | 383 ft | 9 kts | 87° |
| 2026-05-04 21:44 | 49.02605 | 2.54978 | 383 ft | 14 kts | 88° |
| 2026-05-04 21:45 | 49.02604 | 2.55103 | 384 ft | 9 kts | 92° |
| 2026-05-04 21:45 | 49.02596 | 2.55189 | 385 ft | 7 kts | 104° |
| 2026-05-04 21:45 | 49.02578 | 2.55259 | 386 ft | 7 kts | 113° |
| 2026-05-04 21:45 | 49.02556 | 2.55333 | 386 ft | 8 kts | 114° |
| 2026-05-04 21:46 | 49.02533 | 2.55408 | 386 ft | 8 kts | 115° |
| 2026-05-04 21:46 | 49.02505 | 2.55497 | 386 ft | 10 kts | 116° |
| 2026-05-04 21:46 | 49.02458 | 2.55579 | 386 ft | 11 kts | 148° |
| 2026-05-04 21:46 | 49.02377 | 2.55616 | 386 ft | 13 kts | 169° |
| 2026-05-04 21:47 | 49.02283 | 2.55632 | 385 ft | 13 kts | 174° |
| 2026-05-04 21:47 | 49.02191 | 2.55642 | 383 ft | 12 kts | 176° |
| 2026-05-04 21:47 | 49.02110 | 2.55675 | 381 ft | 12 kts | 142° |
| 2026-05-04 21:47 | 49.02082 | 2.55799 | 381 ft | 12 kts | 89° |
| 2026-05-04 21:48 | 49.02085 | 2.55929 | 381 ft | 11 kts | 85° |
| 2026-05-04 21:48 | 49.02088 | 2.56001 | 381 ft | 5 kts | 87° |
| 2026-05-04 21:48 | 49.02091 | 2.56069 | 381 ft | 8 kts | 84° |
| 2026-05-04 21:48 | 49.02096 | 2.56163 | 383 ft | 9 kts | 87° |
| 2026-05-04 21:49 | 49.02077 | 2.56278 | 382 ft | 13 kts | 124° |
| 2026-05-04 21:49 | 49.01997 | 2.56335 | 379 ft | 11 kts | 169° |
| 2026-05-04 21:49 | 49.01943 | 2.56414 | 378 ft | 11 kts | 100° |
| 2026-05-04 21:49 | 49.01942 | 2.56532 | 378 ft | 10 kts | 87° |
| 2026-05-04 21:50 | 49.01946 | 2.56643 | 378 ft | 10 kts | 86° |
| 2026-05-04 21:50 | 49.01952 | 2.56773 | 376 ft | 14 kts | 84° |
| 2026-05-04 21:50 | 49.01962 | 2.56946 | 373 ft | 17 kts | 83° |
| 2026-05-04 21:50 | 49.01974 | 2.57143 | 372 ft | 19 kts | 85° |
| 2026-05-04 21:51 | 49.01982 | 2.57351 | 369 ft | 19 kts | 86° |
| 2026-05-04 21:51 | 49.01991 | 2.57539 | 369 ft | 16 kts | 86° |
| 2026-05-04 21:51 | 49.01999 | 2.57692 | 369 ft | 12 kts | 87° |
| 2026-05-04 21:51 | 49.01986 | 2.57815 | 369 ft | 11 kts | 111° |
| 2026-05-04 21:52 | 49.01934 | 2.57926 | 367 ft | 14 kts | 137° |
| 2026-05-04 21:52 | 49.01841 | 2.57985 | 363 ft | 14 kts | 170° |
| 2026-05-04 21:52 | 49.01745 | 2.58001 | 361 ft | 13 kts | 176° |
| 2026-05-04 21:52 | 49.01658 | 2.58006 | 359 ft | 11 kts | 178° |
| 2026-05-04 21:53 | 49.01575 | 2.58009 | 356 ft | 12 kts | 178° |
| 2026-05-04 21:53 | 49.01488 | 2.58027 | 352 ft | 12 kts | 168° |
| 2026-05-04 21:53 | 49.01413 | 2.58044 | 352 ft | 9 kts | 175° |
| 2026-05-04 21:53 | 49.01347 | 2.58049 | 352 ft | 9 kts | 177° |
| 2026-05-04 21:54 | 49.01278 | 2.58057 | 352 ft | 10 kts | 173° |
| 2026-05-04 21:54 | 49.01198 | 2.58068 | 352 ft | 13 kts | 175° |
| 2026-05-04 21:54 | 49.01099 | 2.58079 | 351 ft | 15 kts | 175° |
| 2026-05-04 21:54 | 49.00986 | 2.58095 | 351 ft | 16 kts | 173° |
| 2026-05-04 21:55 | 49.00883 | 2.58113 | 351 ft | 11 kts | 167° |
| 2026-05-04 21:55 | 49.00831 | 2.58205 | 349 ft | 13 kts | 96° |
| 2026-05-04 21:55 | 49.00834 | 2.58363 | 346 ft | 15 kts | 87° |
| 2026-05-04 21:55 | 49.00841 | 2.58531 | 343 ft | 15 kts | 85° |
| 2026-05-04 21:56 | 49.00847 | 2.58685 | 340 ft | 14 kts | 84° |
| 2026-05-04 21:56 | 49.00858 | 2.58837 | 340 ft | 14 kts | 83° |
| 2026-05-04 21:56 | 49.00866 | 2.58976 | 343 ft | 12 kts | 84° |
| 2026-05-04 21:56 | 49.00874 | 2.59102 | 343 ft | 12 kts | 84° |
| 2026-05-04 21:57 | 49.00880 | 2.59232 | 343 ft | 12 kts | 86° |
| 2026-05-04 21:57 | 49.00885 | 2.59368 | 341 ft | 14 kts | 80° |
| 2026-05-04 21:57 | 49.00877 | 2.59494 | 339 ft | 8 kts | 130° |
| 2026-05-04 21:57 | 49.00822 | 2.59542 | 339 ft | 9 kts | 165° |
| 2026-05-04 21:58 | 49.00764 | 2.59558 | 340 ft | 8 kts | 173° |
| 2026-05-04 21:58 | 49.00706 | 2.59566 | 341 ft | 8 kts | 175° |
| 2026-05-04 21:58 | 49.00642 | 2.59572 | 342 ft | 9 kts | 175° |
| 2026-05-04 21:58 | 49.00567 | 2.59583 | 342 ft | 11 kts | 175° |
| 2026-05-04 21:59 | 49.00479 | 2.59595 | 341 ft | 11 kts | 174° |
| 2026-05-04 21:59 | 49.00419 | 2.59603 | 341 ft | 7 kts | 173° |
| 2026-05-04 21:59 | 49.00382 | 2.59642 | 340 ft | 6 kts | 114° |
| 2026-05-04 21:59 | 49.00365 | 2.59716 | 340 ft | 6 kts | 118° |
| 2026-05-04 22:00 | 49.00339 | 2.59763 | 340 ft | 6 kts | 133° |
| 2026-05-04 22:00 | 49.00317 | 2.59834 | 340 ft | 7 kts | 94° |
| 2026-05-04 22:00 | 49.00335 | 2.59898 | 340 ft | 4 kts | 36° |
| 2026-05-04 22:00 | 49.00352 | 2.59910 | 340 ft | 4 kts | 17° |
| 2026-05-04 22:01 | 49.00389 | 2.59926 | 340 ft | 3 kts | 9° |
| 2026-05-04 22:01 | 49.00399 | 2.59915 | 340 ft | 1 kts | 295° |
| 2026-05-04 22:01 | 49.00401 | 2.59885 | 340 ft | 4 kts | 272° |
| 2026-05-04 22:01 | 49.00401 | 2.59873 | 340 ft | 0 kts | 270° |